createdAt,value
2019-04-06T00:01:01.586Z,29.95
2019-04-06T00:03:30.982Z,28.35
2019-04-06T00:06:00.384Z,29.18
2019-04-06T00:08:30.666Z,29.92
2019-04-06T00:11:00.398Z,32.38
2019-04-06T00:13:30.057Z,24.80
2019-04-06T00:16:00.125Z,33.23
2019-04-06T00:18:29.824Z,27.48
2019-04-06T00:20:59.994Z,25.12
2019-04-06T00:23:29.358Z,27.17
2019-04-06T00:25:59.333Z,25.75
2019-04-06T00:28:29.047Z,27.17
2019-04-06T00:31:18.170Z,29.27
2019-04-06T00:33:47.726Z,30.60
2019-04-06T00:36:17.201Z,30.12
2019-04-06T00:38:47.100Z,29.23
2019-04-06T00:41:16.768Z,32.60
2019-04-06T00:43:46.353Z,26.82
2019-04-06T00:46:16.491Z,26.95
2019-04-06T00:48:46.225Z,27.22
2019-04-06T00:51:15.541Z,36.53
2019-04-06T00:53:46.258Z,36.50
2019-04-06T00:56:16.419Z,37.08
2019-04-06T00:58:46.544Z,34.40
2019-04-06T01:01:16.217Z,40.73
2019-04-06T01:03:45.924Z,36.90
2019-04-06T01:06:15.941Z,34.13
2019-04-06T01:08:46.164Z,35.10
2019-04-06T01:11:16.488Z,32.40
2019-04-06T01:13:46.912Z,33.20
2019-04-06T01:16:16.495Z,30.92
2019-04-06T01:18:45.957Z,35.68
2019-04-06T01:21:15.456Z,41.75
2019-04-06T01:23:45.693Z,30.82
2019-04-06T01:26:15.222Z,36.60
2019-04-06T01:28:46.676Z,26.95
2019-04-06T01:31:16.160Z,30.17
2019-04-06T01:33:45.688Z,30.25
2019-04-06T01:36:16.185Z,27.13
2019-04-06T01:38:45.709Z,32.45
2019-04-06T01:41:15.740Z,31.62
2019-04-06T01:43:45.372Z,38.40
2019-04-06T01:46:15.396Z,35.25
2019-04-06T01:48:45.248Z,32.73
2019-04-06T01:51:14.793Z,29.80
2019-04-06T01:53:45.689Z,43.08
2019-04-06T01:56:18.688Z,32.65
2019-04-06T01:58:46.445Z,28.62
2019-04-06T02:01:34.873Z,32.25
2019-04-06T02:04:04.264Z,32.25
2019-04-06T02:06:34.351Z,32.67
2019-04-06T02:09:05.750Z,36.58
2019-04-06T02:11:35.858Z,31.82
2019-04-06T02:14:05.764Z,28.67
2019-04-06T02:16:35.036Z,28.80
2019-04-06T02:19:05.250Z,32.63
2019-04-06T02:21:34.766Z,34.60
2019-04-06T02:24:04.113Z,31.02
2019-04-06T02:26:33.626Z,32.67
2019-04-06T02:29:04.182Z,31.37
2019-04-06T02:31:51.433Z,30.48
2019-04-06T02:34:38.378Z,30.72
2019-04-06T02:37:27.712Z,35.17
2019-04-06T02:40:16.812Z,31.02
2019-04-06T02:42:53.379Z,33.83
2019-04-06T02:45:27.633Z,34.90
2019-04-06T02:47:57.207Z,30.88
2019-04-06T02:50:28.369Z,31.90
2019-04-06T02:52:58.564Z,33.15
2019-04-06T02:55:28.571Z,31.45
2019-04-06T02:57:58.466Z,37.80
2019-04-06T03:00:28.808Z,32.00
2019-04-06T03:02:58.370Z,33.70
2019-04-06T03:05:27.957Z,36.83
2019-04-06T03:07:58.829Z,34.05
2019-04-06T03:10:28.307Z,33.45
2019-04-06T03:12:58.016Z,34.63
2019-04-06T03:15:27.742Z,34.92
2019-04-06T03:17:58.434Z,31.30
2019-04-06T03:20:28.666Z,33.35
2019-04-06T03:23:00.162Z,35.80
2019-04-06T03:25:32.000Z,41.95
2019-04-06T03:28:01.423Z,36.75
2019-04-06T03:30:31.296Z,40.92
2019-04-06T03:33:02.514Z,34.88
2019-04-06T03:35:34.833Z,37.70
2019-04-06T03:38:05.360Z,37.50
2019-04-06T03:40:35.982Z,39.90
2019-04-06T03:43:06.117Z,37.45
2019-04-06T03:45:36.110Z,38.28
2019-04-06T03:48:07.407Z,39.13
2019-04-06T03:50:37.995Z,42.13
2019-04-06T03:53:08.078Z,40.40
2019-04-06T03:55:40.243Z,43.55
2019-04-06T03:58:09.842Z,44.50
2019-04-06T04:00:40.269Z,33.63
2019-04-06T04:03:09.837Z,44.38
2019-04-06T04:05:39.684Z,42.78
2019-04-06T04:08:09.572Z,44.05
2019-04-06T04:10:39.470Z,43.15
2019-04-06T04:13:11.544Z,41.77
2019-04-06T04:15:41.120Z,45.65
2019-04-06T04:18:10.767Z,40.48
2019-04-06T04:20:41.185Z,41.05
2019-04-06T04:23:11.509Z,44.65
2019-04-06T04:25:41.511Z,43.75
2019-04-06T04:28:11.860Z,44.35
2019-04-06T04:30:43.391Z,39.92
2019-04-06T04:36:12.648Z,37.93
2019-04-06T04:38:53.168Z,50.52
2019-04-06T04:41:25.232Z,45.88
2019-04-06T04:43:54.814Z,47.10
2019-04-06T04:46:24.243Z,45.78
2019-04-06T04:48:54.882Z,44.10
2019-04-06T04:51:24.539Z,45.05
2019-04-06T04:53:54.166Z,50.98
2019-04-06T04:56:24.486Z,51.28
2019-04-06T04:58:54.382Z,48.58
2019-04-06T05:01:26.211Z,49.88
2019-04-06T05:03:56.495Z,50.95
2019-04-06T05:06:26.402Z,44.27
2019-04-06T05:08:57.034Z,45.03
2019-04-06T05:11:26.862Z,44.95
2019-04-06T05:14:32.641Z,45.33
2019-04-06T05:17:02.789Z,50.30
2019-04-06T05:19:33.235Z,53.50
2019-04-06T05:22:03.620Z,51.55
2019-04-06T05:24:36.941Z,51.63
2019-04-06T05:27:06.680Z,46.83
2019-04-06T05:29:36.076Z,50.55
2019-04-06T05:32:06.108Z,50.70
2019-04-06T05:34:35.802Z,55.33
2019-04-06T05:37:06.650Z,54.60
2019-04-06T05:39:36.655Z,46.25
2019-04-06T05:42:06.308Z,51.98
2019-04-06T05:44:37.368Z,45.78
2019-04-06T05:47:08.035Z,50.83
2019-04-06T05:49:37.765Z,50.83
2019-04-06T05:52:08.849Z,50.58
2019-04-06T05:54:38.336Z,49.23
2019-04-06T05:57:09.425Z,53.90
2019-04-06T05:59:40.943Z,50.35
2019-04-06T06:02:11.837Z,45.33
2019-04-06T06:04:43.201Z,51.42
2019-04-06T06:07:16.026Z,48.90
2019-04-06T06:09:46.146Z,47.98
2019-04-06T06:12:15.879Z,45.10
2019-04-06T06:14:45.475Z,49.13
2019-04-06T06:17:15.650Z,53.10
2019-04-06T06:19:45.704Z,47.20
2019-04-06T06:22:15.479Z,51.18
2019-04-06T06:24:55.798Z,50.25
2019-04-06T06:27:27.841Z,54.33
2019-04-06T06:29:57.500Z,47.93
2019-04-06T06:32:31.363Z,54.05
2019-04-06T06:35:01.298Z,49.13
2019-04-06T06:37:31.144Z,49.23
2019-04-06T06:40:11.689Z,54.45
2019-04-06T06:42:46.362Z,53.90
2019-04-06T06:45:16.329Z,58.52
2019-04-06T06:47:46.145Z,49.58
2019-04-06T06:50:27.851Z,51.33
2019-04-06T06:52:57.461Z,55.90
2019-04-06T06:55:27.216Z,52.67
2019-04-06T06:57:56.694Z,51.68
2019-04-06T07:00:26.022Z,50.50
2019-04-06T07:02:55.190Z,51.70
2019-04-06T07:05:24.545Z,54.40
2019-04-06T07:07:53.787Z,55.65
2019-04-06T07:10:22.964Z,51.65
2019-04-06T07:12:52.848Z,56.23
2019-04-06T07:15:22.131Z,48.83
2019-04-06T07:17:51.285Z,55.08
2019-04-06T07:20:20.774Z,51.83
2019-04-06T07:22:51.598Z,51.55
2019-04-06T07:25:20.958Z,54.42
2019-04-06T07:27:50.492Z,50.12
2019-04-06T07:30:19.869Z,53.50
2019-04-06T07:32:49.196Z,60.45
2019-04-06T07:35:18.726Z,52.17
2019-04-06T07:37:48.166Z,50.50
2019-04-06T07:40:22.827Z,54.42
2019-04-06T07:42:53.044Z,55.60
2019-04-06T07:45:23.003Z,57.10
2019-04-06T07:47:53.558Z,50.67
2019-04-06T07:50:23.155Z,74.70
2019-04-06T07:52:53.846Z,64.12
2019-04-06T07:55:22.974Z,57.65
2019-04-06T07:57:52.334Z,51.88
2019-04-06T08:00:22.733Z,57.53
2019-04-06T08:02:57.966Z,54.73
2019-04-06T08:05:29.276Z,55.12
2019-04-06T08:07:59.032Z,56.53
2019-04-06T08:10:44.085Z,57.80
2019-04-06T08:13:27.823Z,62.48
2019-04-06T08:15:58.644Z,62.10
2019-04-06T08:18:31.368Z,61.80
2019-04-06T08:21:15.188Z,61.98
2019-04-06T08:23:46.120Z,53.17
2019-04-06T08:26:16.324Z,55.35
2019-04-06T08:28:47.228Z,58.68
2019-04-06T08:31:17.004Z,59.70
2019-04-06T08:33:48.404Z,58.02
2019-04-06T08:36:23.811Z,54.45
2019-04-06T08:38:57.147Z,52.17
2019-04-06T08:41:41.128Z,51.07
2019-04-06T08:46:38.396Z,52.67
2019-04-06T08:49:07.716Z,47.20
2019-04-06T08:51:37.759Z,45.83
2019-04-06T08:54:07.638Z,43.13
2019-04-06T08:56:36.875Z,47.77
2019-04-06T08:59:12.230Z,50.17
2019-04-06T09:01:37.617Z,53.53
2019-04-06T09:04:07.516Z,46.83
2019-04-06T09:06:36.825Z,50.33
2019-04-06T09:09:07.542Z,50.50
2019-04-06T09:11:37.068Z,45.13
2019-04-06T09:14:06.410Z,45.20
2019-04-06T09:16:35.895Z,45.70
2019-04-06T09:19:06.445Z,50.27
2019-04-06T09:21:36.093Z,47.60
2019-04-06T09:24:05.246Z,44.30
2019-04-06T09:26:34.529Z,48.40
2019-04-06T09:29:04.183Z,46.50
2019-04-06T09:31:33.826Z,51.17
2019-04-06T09:34:05.750Z,49.13
2019-04-06T09:36:35.128Z,55.23
2019-04-06T09:39:06.308Z,47.60
2019-04-06T09:41:38.137Z,51.23
2019-04-06T09:44:15.708Z,49.73
2019-04-06T09:47:16.218Z,51.53
2019-04-06T09:50:05.823Z,49.50
2019-04-06T09:52:56.798Z,52.03
2019-04-06T09:56:01.699Z,50.93
2019-04-06T09:59:13.184Z,51.30
2019-04-06T10:02:00.458Z,55.00
2019-04-06T10:04:59.035Z,50.27
2019-04-06T10:14:52.251Z,49.77
2019-04-06T10:17:39.388Z,54.70
2019-04-06T10:20:40.625Z,52.23
2019-04-06T10:23:31.814Z,46.57
2019-04-06T10:26:18.549Z,44.70
2019-04-06T10:29:10.360Z,48.53
2019-04-06T10:32:16.904Z,46.33
2019-04-06T10:35:03.963Z,46.30
2019-04-06T10:38:02.217Z,48.03
2019-04-06T10:40:48.998Z,45.60
2019-04-06T10:43:32.763Z,44.90
2019-04-06T10:46:27.281Z,43.40
2019-04-06T10:49:15.529Z,48.80
2019-04-06T10:52:05.106Z,45.27
2019-04-06T10:54:53.458Z,48.80
2019-04-06T10:57:31.848Z,45.33
2019-04-06T11:00:09.933Z,41.43
2019-04-06T11:03:04.584Z,45.17
2019-04-06T11:05:45.342Z,42.90
2019-04-06T11:08:37.191Z,38.43
2019-04-06T11:11:28.263Z,39.07
2019-04-06T11:14:06.026Z,38.50
2019-04-06T11:17:03.819Z,36.00
2019-04-06T11:19:48.284Z,37.40
2019-04-06T11:22:25.525Z,36.80
2019-04-06T11:25:14.338Z,34.70
2019-04-06T11:28:05.910Z,34.17
2019-04-06T11:31:07.977Z,33.33
2019-04-06T11:33:54.888Z,40.57
2019-04-06T11:36:45.944Z,33.20
2019-04-06T11:39:43.134Z,36.93
2019-04-06T11:42:29.245Z,33.57
2019-04-06T11:45:23.933Z,35.60
2019-04-06T11:48:13.866Z,35.83
2019-04-06T11:51:03.913Z,34.77
2019-04-06T11:53:55.050Z,32.60
2019-04-06T11:56:49.844Z,34.20
2019-04-06T11:59:40.612Z,37.40
2019-04-06T12:02:31.732Z,34.30
2019-04-06T12:05:10.961Z,34.03
2019-04-06T12:07:58.147Z,34.13
2019-04-06T12:10:46.774Z,32.47
2019-04-06T12:13:38.355Z,35.10
2019-04-06T12:16:26.730Z,30.97
2019-04-06T12:19:06.719Z,30.80
2019-04-06T12:21:49.629Z,29.70
2019-04-06T12:24:36.826Z,30.23
2019-04-06T12:27:27.968Z,30.37
2019-04-06T12:30:38.659Z,28.90
2019-04-06T12:33:20.333Z,32.23
2019-04-06T12:36:08.621Z,31.30
2019-04-06T12:39:03.052Z,37.93
2019-04-06T12:42:09.761Z,34.97
2019-04-06T12:45:18.485Z,30.13
2019-04-06T12:48:05.423Z,29.10
2019-04-06T12:50:52.778Z,33.37
2019-04-06T12:53:33.056Z,34.23
2019-04-06T12:56:20.177Z,32.23
2019-04-06T12:59:17.526Z,36.40
2019-04-06T13:01:58.637Z,34.00
2019-04-06T13:04:59.386Z,28.87
2019-04-06T13:07:47.742Z,37.27
2019-04-06T13:10:28.446Z,34.10
2019-04-06T13:13:21.309Z,28.40
2019-04-06T13:16:03.088Z,30.00
2019-04-06T13:18:51.353Z,26.33
2019-04-06T13:21:38.429Z,28.10
2019-04-06T13:24:25.779Z,33.30
2019-04-06T13:27:10.840Z,31.00
2019-04-06T13:29:54.591Z,33.67
2019-04-06T13:32:51.161Z,32.73
2019-04-06T13:35:49.008Z,32.83
2019-04-06T13:38:33.529Z,29.97
2019-04-06T13:41:13.919Z,31.20
2019-04-06T13:43:57.093Z,27.57
2019-04-06T13:46:40.289Z,29.47
2019-04-06T13:49:31.903Z,25.83
2019-04-06T13:52:11.863Z,25.80
2019-04-06T13:54:59.760Z,27.70
2019-04-06T13:57:48.247Z,30.03
2019-04-06T14:00:37.548Z,28.50
2019-04-06T14:03:29.481Z,28.67
2019-04-06T14:06:12.057Z,26.43
2019-04-06T14:09:06.699Z,27.50
2019-04-06T14:11:55.382Z,26.37
2019-04-06T14:14:51.341Z,26.63
2019-04-06T14:17:32.639Z,26.37
2019-04-06T14:20:21.445Z,27.47
2019-04-06T14:23:13.679Z,27.00
2019-04-06T14:26:14.820Z,28.30
2019-04-06T14:28:59.829Z,28.70
2019-04-06T14:31:51.752Z,31.03
2019-04-06T14:34:49.185Z,30.80
2019-04-06T14:37:39.502Z,28.60
2019-04-06T14:40:39.336Z,29.17
2019-04-06T14:43:19.994Z,33.17
2019-04-06T14:46:07.720Z,31.60
2019-04-06T14:48:46.836Z,30.03
2019-04-06T14:51:47.652Z,32.00
2019-04-06T14:54:32.785Z,33.27
2019-04-06T14:57:17.604Z,29.33
2019-04-06T15:00:14.541Z,31.33
2019-04-06T15:03:02.851Z,31.70
2019-04-06T15:05:54.454Z,32.33
2019-04-06T15:08:37.679Z,31.40
2019-04-06T15:11:24.710Z,26.60
2019-04-06T15:14:20.753Z,30.60
2019-04-06T15:16:58.640Z,26.53
2019-04-06T15:19:47.027Z,26.63
2019-04-06T15:22:41.231Z,27.90
2019-04-06T15:25:35.701Z,25.17
2019-04-06T15:28:27.629Z,24.10
2019-04-06T15:31:19.721Z,24.50
2019-04-06T15:34:10.155Z,24.80
2019-04-06T15:36:57.252Z,24.60
2019-04-06T15:39:49.107Z,23.10
2019-04-06T15:42:44.131Z,24.20
2019-04-06T15:45:45.525Z,26.03
2019-04-06T15:48:42.799Z,23.13
2019-04-06T15:51:39.250Z,23.40
2019-04-06T15:54:30.401Z,25.80
2019-04-06T16:00:42.105Z,22.80
2019-04-06T16:03:46.029Z,25.50
2019-04-06T16:06:51.772Z,25.50
2019-04-06T16:09:43.597Z,22.60
2019-04-06T16:12:22.930Z,25.87
2019-04-06T16:15:22.368Z,26.13
2019-04-06T16:18:21.665Z,24.30
2019-04-06T16:21:10.135Z,26.00
2019-04-06T16:24:06.855Z,19.30
2019-04-06T16:27:10.748Z,24.90
2019-04-06T16:30:03.705Z,25.67
2019-04-06T16:32:49.497Z,20.93
2019-04-06T16:35:30.655Z,22.63
2019-04-06T16:38:28.603Z,19.80
2019-04-06T16:41:17.424Z,23.03
2019-04-06T16:44:11.993Z,20.77
2019-04-06T16:47:01.426Z,19.50
2019-04-06T16:49:57.939Z,18.77
2019-04-06T16:52:48.911Z,21.53
2019-04-06T16:55:35.922Z,19.97
2019-04-06T16:58:24.993Z,19.80
2019-04-06T17:01:26.179Z,21.90
2019-04-06T17:04:21.435Z,21.33
2019-04-06T17:07:10.234Z,20.37
2019-04-06T17:10:02.644Z,22.40
2019-04-06T17:12:53.651Z,21.07
2019-04-06T17:15:42.668Z,20.90
2019-04-06T17:18:33.366Z,19.10
2019-04-06T17:21:21.900Z,18.93
2019-04-06T17:24:15.341Z,18.03
2019-04-06T17:27:06.789Z,21.43
2019-04-06T17:30:14.199Z,19.50
2019-04-06T17:33:06.690Z,22.17
2019-04-06T17:36:02.599Z,21.43
2019-04-06T17:38:52.490Z,21.83
2019-04-06T17:41:42.404Z,20.43
2019-04-06T17:44:40.461Z,19.27
2019-04-06T17:47:45.758Z,24.53
2019-04-06T17:50:46.687Z,20.23
2019-04-06T17:53:44.648Z,18.27
2019-04-06T17:56:35.142Z,21.63
2019-04-06T17:59:32.430Z,19.30
2019-04-06T18:02:17.797Z,22.20
2019-04-06T18:05:28.259Z,27.70
2019-04-06T18:08:10.830Z,23.50
2019-04-06T18:11:03.909Z,19.60
2019-04-06T18:13:42.424Z,21.93
2019-04-06T18:16:11.831Z,20.47
2019-04-06T18:18:41.271Z,26.10
2019-04-06T18:21:13.405Z,27.23
2019-04-06T18:23:42.969Z,21.90
2019-04-06T18:26:13.009Z,24.80
2019-04-06T18:28:43.641Z,23.07
2019-04-06T18:31:29.142Z,20.27
2019-04-06T18:33:59.226Z,19.53
2019-04-06T18:36:47.923Z,20.80
2019-04-06T18:39:17.386Z,23.07
2019-04-06T18:41:46.884Z,25.77
2019-04-06T18:44:17.460Z,39.00
2019-04-06T18:46:47.387Z,30.53
2019-04-06T18:49:16.962Z,24.73
2019-04-06T18:51:46.741Z,24.77
2019-04-06T18:54:16.456Z,24.77
2019-04-06T18:56:45.984Z,24.70
2019-04-06T18:59:15.363Z,23.97
2019-04-06T19:01:45.162Z,21.20
2019-04-06T19:04:15.714Z,22.10
2019-04-06T19:06:45.444Z,27.37
2019-04-06T19:09:23.293Z,33.43
2019-04-06T19:11:54.279Z,24.87
2019-04-06T19:14:16.981Z,28.10
2019-04-06T19:16:47.724Z,29.10
2019-04-06T19:19:30.988Z,33.30
2019-04-06T19:22:00.407Z,30.87
2019-04-06T19:24:31.487Z,31.37
2019-04-06T19:27:00.768Z,32.23
2019-04-06T19:29:30.129Z,31.10
2019-04-06T19:31:59.353Z,30.60
2019-04-06T19:34:28.757Z,30.70
2019-04-06T19:36:59.111Z,27.27
2019-04-06T19:39:29.132Z,30.60
2019-04-06T19:41:58.615Z,44.50
2019-04-06T19:44:28.167Z,50.63
2019-04-06T19:46:59.147Z,36.17
2019-04-06T19:49:30.704Z,54.80
2019-04-06T19:52:00.105Z,96.30
2019-04-06T19:54:29.475Z,116.80
2019-04-06T19:56:58.907Z,43.33
2019-04-06T19:59:32.259Z,35.43
2019-04-06T20:02:01.757Z,68.70
2019-04-06T20:04:31.051Z,36.10
2019-04-06T20:07:01.574Z,29.67
2019-04-06T20:09:31.017Z,28.03
2019-04-06T20:12:07.252Z,29.50
2019-04-06T20:14:36.772Z,27.83
2019-04-06T20:17:06.880Z,31.60
2019-04-06T20:19:36.626Z,33.93
2019-04-06T20:22:07.646Z,31.80
2019-04-06T20:24:40.886Z,29.53
2019-04-06T20:27:12.696Z,36.30
2019-04-06T20:29:42.153Z,33.13
2019-04-06T20:32:12.133Z,28.83
2019-04-06T20:34:41.572Z,38.23
2019-04-06T20:37:10.975Z,35.00
2019-04-06T20:39:40.196Z,38.13
2019-04-06T20:42:09.890Z,33.97
2019-04-06T20:44:39.301Z,66.00
2019-04-06T20:47:09.348Z,47.43
2019-04-06T20:49:38.838Z,59.10
2019-04-06T20:52:08.692Z,103.73
2019-04-06T20:54:38.418Z,44.37
2019-04-06T20:57:07.834Z,59.53
2019-04-06T20:59:37.090Z,64.57
2019-04-06T21:02:06.520Z,53.87
2019-04-06T21:04:35.817Z,38.20
2019-04-06T21:07:05.512Z,40.00
2019-04-06T21:09:35.753Z,44.67
2019-04-06T21:12:05.478Z,40.43
2019-04-06T21:14:35.117Z,35.10
2019-04-06T21:17:04.440Z,29.70
2019-04-06T21:19:34.019Z,35.43
2019-04-06T21:22:03.271Z,32.67
2019-04-06T21:24:33.035Z,33.83
2019-04-06T21:27:03.301Z,36.10
2019-04-06T21:29:32.641Z,38.50
2019-04-06T21:32:03.602Z,36.37
2019-04-06T21:34:34.318Z,33.93
2019-04-06T21:37:04.186Z,32.73
2019-04-06T21:39:34.892Z,33.53
2019-04-06T21:42:04.502Z,36.53
2019-04-06T21:44:38.832Z,32.67
2019-04-06T21:47:08.390Z,34.90
2019-04-06T21:49:37.705Z,33.10
2019-04-06T21:52:07.537Z,31.43
2019-04-06T21:54:37.225Z,33.07
2019-04-06T21:57:07.157Z,32.13
2019-04-06T21:59:37.369Z,34.90
2019-04-06T22:02:07.105Z,32.03
2019-04-06T22:04:38.473Z,33.83
2019-04-06T22:07:08.737Z,37.83
2019-04-06T22:09:38.939Z,34.50
2019-04-06T22:12:08.500Z,34.50
2019-04-06T22:17:08.175Z,40.37
2019-04-06T22:19:38.193Z,30.27
2019-04-06T22:22:07.606Z,30.43
2019-04-06T22:24:37.147Z,28.87
2019-04-06T22:27:07.984Z,34.80
2019-04-06T22:29:37.983Z,33.80
2019-04-06T22:32:07.592Z,37.90
2019-04-06T22:34:40.171Z,32.23
2019-04-06T22:37:08.562Z,38.63
2019-04-06T22:39:38.024Z,39.90
2019-04-06T22:42:08.936Z,44.27
2019-04-06T22:44:38.385Z,28.07
2019-04-06T22:47:08.180Z,30.03
2019-04-06T22:49:37.603Z,29.13
2019-04-06T22:52:07.839Z,26.33
2019-04-06T22:54:37.226Z,27.53
2019-04-06T22:57:08.012Z,27.07
2019-04-06T22:59:37.352Z,32.23
2019-04-06T23:02:06.786Z,34.30
2019-04-06T23:04:48.643Z,33.83
2019-04-06T23:07:18.126Z,34.73
2019-04-06T23:09:47.503Z,34.80
2019-04-06T23:12:16.947Z,41.73
2019-04-06T23:14:46.290Z,44.17
2019-04-06T23:17:18.012Z,44.30
2019-04-06T23:19:47.366Z,42.97
2019-04-06T23:22:16.836Z,39.03
2019-04-06T23:24:46.786Z,40.40
2019-04-06T23:27:17.474Z,40.77
2019-04-06T23:29:46.661Z,41.00
2019-04-06T23:32:16.014Z,37.50
2019-04-06T23:34:45.333Z,49.73
2019-04-06T23:37:15.124Z,53.70
2019-04-06T23:39:44.712Z,38.30
2019-04-06T23:42:14.028Z,42.37
2019-04-06T23:44:43.519Z,39.80
2019-04-06T23:47:12.833Z,40.30
2019-04-06T23:49:42.800Z,42.67
2019-04-06T23:52:12.531Z,36.10
2019-04-06T23:54:41.807Z,36.83
2019-04-06T23:57:11.079Z,35.27
2019-04-06T23:59:40.322Z,39.10
